createdAt,value
2023-05-10T00:02:57.765Z,53.31
2023-05-10T00:07:59.089Z,53.87
2023-05-10T00:13:00.535Z,53.93
2023-05-10T00:18:01.949Z,54.17
2023-05-10T00:23:03.292Z,54.39
2023-05-10T00:28:04.793Z,54.69
2023-05-10T00:33:06.303Z,54.75
2023-05-10T00:38:07.653Z,55.08
2023-05-10T00:43:08.947Z,55.26
2023-05-10T00:48:10.513Z,55.44
2023-05-10T00:53:12.613Z,55.89
2023-05-10T00:58:14.368Z,55.95
2023-05-10T01:03:16.065Z,55.85
2023-05-10T01:08:17.749Z,56.15
2023-05-10T01:13:41.354Z,56.33
2023-05-10T01:18:44.571Z,56.54
2023-05-10T01:23:54.765Z,56.74
2023-05-10T01:29:26.456Z,57.09
2023-05-10T01:34:35.528Z,57.55
2023-05-10T01:39:58.597Z,57.87
2023-05-10T01:45:13.191Z,57.91
2023-05-10T01:50:25.119Z,58.07
2023-05-10T01:55:32.603Z,58.31
2023-05-10T02:00:35.978Z,58.63
2023-05-10T02:05:39.431Z,58.90
2023-05-10T02:10:42.918Z,59.17
2023-05-10T02:15:48.409Z,59.33
2023-05-10T02:20:52.781Z,59.50
2023-05-10T02:25:56.803Z,59.57
2023-05-10T02:30:58.276Z,59.84
2023-05-10T02:36:08.076Z,60.45
2023-05-10T02:41:23.268Z,60.38
2023-05-10T02:46:24.652Z,60.30
2023-05-10T02:51:31.975Z,60.33
2023-05-10T02:56:36.237Z,60.58
2023-05-10T03:01:37.467Z,60.82
2023-05-10T03:06:38.769Z,61.03
2023-05-10T03:11:43.084Z,61.12
2023-05-10T03:16:52.830Z,61.45
2023-05-10T03:21:59.135Z,61.51
2023-05-10T03:27:03.238Z,61.60
2023-05-10T03:32:04.614Z,61.69
2023-05-10T03:37:06.574Z,61.64
2023-05-10T03:42:08.213Z,61.84
2023-05-10T03:47:09.897Z,61.68
2023-05-10T03:53:10.973Z,61.65
2023-05-10T03:59:32.153Z,61.65
2023-05-10T04:04:53.759Z,61.51
2023-05-10T04:09:55.427Z,61.67
2023-05-10T04:14:57.754Z,61.54
2023-05-10T04:19:58.969Z,61.41
2023-05-10T04:25:00.481Z,61.27
2023-05-10T04:30:01.735Z,60.98
2023-05-10T04:35:05.053Z,60.92
2023-05-10T04:40:06.905Z,60.70
2023-05-10T04:45:09.872Z,60.12
2023-05-10T04:51:11.029Z,59.74
2023-05-10T04:57:32.191Z,59.21
2023-05-10T05:03:53.264Z,58.64
2023-05-10T05:10:14.460Z,58.23
2023-05-10T05:16:35.673Z,57.25
2023-05-10T05:21:57.162Z,56.53
2023-05-10T05:27:58.391Z,56.28
2023-05-10T05:34:19.723Z,53.41
2023-05-10T05:40:40.664Z,51.76
2023-05-10T05:47:01.683Z,48.34
2023-05-10T05:53:22.581Z,46.97
2023-05-10T05:59:53.572Z,46.20
2023-05-10T06:06:14.591Z,44.58
2023-05-10T06:12:35.633Z,44.67
2023-05-10T06:18:12.495Z,41.98
2023-05-10T06:23:13.697Z,40.13
2023-05-10T06:28:15.008Z,36.54
2023-05-10T06:33:16.549Z,35.87
2023-05-10T06:38:17.790Z,34.75
2023-05-10T06:43:19.009Z,35.03
2023-05-10T06:48:20.353Z,32.77
2023-05-10T06:53:21.740Z,33.01
2023-05-10T06:58:23.292Z,31.40
2023-05-10T07:03:24.720Z,31.26
2023-05-10T07:08:26.182Z,30.67
2023-05-10T07:13:27.560Z,29.90
2023-05-10T07:18:29.335Z,28.96
2023-05-10T07:23:30.895Z,29.21
2023-05-10T07:28:32.127Z,28.93
2023-05-10T07:33:33.482Z,29.14
2023-05-10T07:38:38.934Z,27.91
2023-05-10T07:43:41.625Z,28.01
2023-05-10T07:48:42.837Z,27.50
2023-05-10T07:53:44.079Z,27.60
2023-05-10T07:58:45.512Z,27.35
2023-05-10T08:04:46.858Z,27.37
2023-05-10T08:10:18.507Z,27.59
2023-05-10T08:15:20.059Z,27.16
2023-05-10T08:20:21.547Z,26.96
2023-05-10T08:25:22.903Z,26.73
2023-05-10T08:30:24.207Z,27.54
2023-05-10T08:35:25.447Z,26.24
2023-05-10T08:40:26.956Z,27.56
2023-05-10T08:45:33.090Z,26.64
2023-05-10T08:50:37.014Z,27.02
2023-05-10T08:55:39.296Z,26.74
2023-05-10T09:00:40.963Z,27.46
2023-05-10T09:05:42.776Z,27.32
2023-05-10T09:10:44.911Z,27.47
2023-05-10T09:15:46.580Z,28.08
2023-05-10T09:20:48.888Z,27.55
2023-05-10T09:26:03.731Z,28.24
2023-05-10T09:31:05.192Z,26.99
2023-05-10T09:36:09.830Z,27.34
2023-05-10T09:41:22.356Z,27.62
2023-05-10T09:46:24.737Z,28.22
2023-05-10T09:51:27.433Z,28.09
2023-05-10T09:56:37.948Z,28.71
2023-05-10T10:01:39.862Z,28.99
2023-05-10T10:06:41.157Z,29.44
2023-05-10T10:11:42.594Z,28.30
2023-05-10T10:16:59.497Z,28.92
2023-05-10T10:22:06.101Z,27.73
2023-05-10T10:27:29.123Z,27.64
2023-05-10T10:32:50.527Z,24.12
2023-05-10T10:37:51.866Z,24.23
2023-05-10T10:42:54.541Z,24.81
2023-05-10T10:48:22.206Z,25.93
2023-05-10T10:53:26.901Z,24.16
2023-05-10T10:58:34.456Z,23.60
2023-05-10T11:03:38.478Z,24.52
2023-05-10T11:08:44.395Z,26.93
2023-05-10T11:13:51.230Z,27.01
2023-05-10T11:19:02.149Z,26.12
2023-05-10T11:24:13.860Z,23.37
2023-05-10T11:29:16.314Z,24.13
2023-05-10T11:34:25.818Z,24.04
2023-05-10T11:39:31.967Z,23.93
2023-05-10T11:44:33.694Z,24.19
2023-05-10T11:49:34.929Z,24.87
2023-05-10T11:54:36.347Z,24.36
2023-05-10T11:59:37.676Z,25.12
2023-05-10T12:04:39.238Z,25.01
2023-05-10T12:09:45.274Z,26.10
2023-05-10T12:14:50.830Z,26.99
2023-05-10T12:19:51.861Z,27.74
2023-05-10T12:24:53.145Z,28.09
2023-05-10T12:29:55.193Z,27.69
2023-05-10T12:34:58.144Z,27.86
2023-05-10T12:39:59.501Z,28.44
2023-05-10T12:45:00.781Z,28.79
2023-05-10T12:51:01.848Z,28.25
2023-05-10T12:57:22.880Z,27.92
2023-05-10T13:03:46.640Z,27.90
2023-05-10T13:10:07.716Z,28.10
2023-05-10T13:16:28.861Z,27.95
2023-05-10T13:22:50.630Z,28.21
2023-05-10T13:29:13.149Z,27.51
2023-05-10T13:35:34.312Z,27.87
2023-05-10T13:41:55.833Z,27.59
2023-05-10T13:47:56.919Z,27.28
2023-05-10T13:54:18.091Z,27.79
2023-05-10T14:00:39.128Z,28.45
2023-05-10T14:06:00.717Z,28.46
2023-05-10T14:11:02.208Z,28.52
2023-05-10T14:16:03.929Z,27.61
2023-05-10T14:21:05.413Z,28.45
2023-05-10T14:32:11.971Z,28.80
2023-05-10T14:37:22.203Z,29.21
2023-05-10T14:42:43.611Z,29.89
2023-05-10T14:48:37.379Z,29.99
2023-05-10T14:55:39.712Z,29.12
2023-05-10T15:02:22.024Z,29.07
2023-05-10T15:08:43.759Z,28.91
2023-05-10T15:15:05.174Z,29.80
2023-05-10T15:21:35.617Z,30.05
2023-05-10T15:27:26.959Z,30.07
2023-05-10T15:32:37.529Z,30.47
2023-05-10T15:44:29.081Z,30.76
2023-05-10T15:49:30.545Z,31.08
2023-05-10T15:55:31.740Z,31.33
2023-05-10T16:01:52.868Z,31.48
2023-05-10T16:08:23.994Z,31.46
2023-05-10T16:14:44.891Z,31.53
2023-05-10T16:21:06.163Z,31.69
2023-05-10T16:27:27.285Z,31.65
2023-05-10T16:33:48.343Z,32.01
2023-05-10T16:39:16.045Z,32.56
2023-05-10T16:44:18.966Z,32.45
2023-05-10T16:49:23.671Z,32.63
2023-05-10T16:55:26.594Z,32.92
2023-05-10T17:00:48.401Z,33.48
2023-05-10T17:06:49.527Z,33.82
2023-05-10T17:13:10.776Z,33.91
2023-05-10T17:19:32.041Z,34.03
2023-05-10T17:25:53.186Z,34.38
2023-05-10T17:32:14.223Z,34.69
2023-05-10T17:38:35.370Z,35.03
2023-05-10T17:44:56.488Z,35.36
2023-05-10T17:51:17.618Z,35.78
2023-05-10T17:57:38.873Z,35.92
2023-05-10T18:04:00.118Z,36.41
2023-05-10T18:18:03.224Z,36.76
2023-05-10T18:24:34.665Z,37.03
2023-05-10T18:29:59.979Z,37.34
2023-05-10T18:47:37.854Z,38.01
2023-05-10T18:52:39.074Z,38.15
2023-05-10T18:58:40.169Z,38.58
2023-05-10T19:04:01.600Z,38.86
2023-05-10T19:09:03.329Z,39.44
2023-05-10T19:14:05.648Z,39.74
2023-05-10T19:19:09.668Z,40.24
2023-05-10T19:24:12.021Z,40.33
2023-05-10T19:29:22.638Z,40.53
2023-05-10T19:41:24.774Z,40.85
2023-05-10T19:47:45.715Z,41.24
2023-05-10T19:54:06.606Z,41.40
2023-05-10T20:00:27.594Z,41.78
2023-05-10T20:06:48.562Z,42.02
2023-05-10T20:13:09.832Z,42.11
2023-05-10T20:19:30.938Z,42.38
2023-05-10T20:25:51.987Z,42.57
2023-05-10T20:32:12.852Z,42.68
2023-05-10T20:38:33.851Z,42.99
2023-05-10T20:44:54.784Z,43.07
2023-05-10T20:51:15.765Z,43.41
2023-05-10T20:56:44.387Z,43.71
2023-05-10T21:01:45.624Z,43.96
2023-05-10T21:06:47.765Z,44.10
2023-05-10T21:12:49.572Z,44.35
2023-05-10T21:18:10.955Z,44.42
2023-05-10T21:23:12.344Z,44.63
2023-05-10T21:28:13.863Z,44.79
2023-05-10T21:34:15.133Z,44.94
2023-05-10T21:40:37.885Z,45.05
2023-05-10T21:46:59.850Z,45.20
2023-05-10T21:53:22.622Z,45.50
2023-05-10T21:59:43.605Z,45.79
2023-05-10T22:06:14.566Z,46.13
2023-05-10T22:11:35.798Z,46.43
2023-05-10T22:16:36.973Z,46.56
2023-05-10T22:22:05.166Z,46.78
2023-05-10T22:27:06.591Z,46.85
2023-05-10T22:32:08.082Z,47.02
2023-05-10T22:37:09.284Z,47.23
2023-05-10T22:42:10.733Z,47.36
2023-05-10T22:47:12.153Z,47.49
2023-05-10T22:52:13.616Z,47.82
2023-05-10T22:57:15.670Z,47.94
2023-05-10T23:02:17.019Z,48.15
2023-05-10T23:07:18.521Z,48.30
2023-05-10T23:12:20.178Z,48.40
2023-05-10T23:17:25.322Z,48.54
2023-05-10T23:22:26.533Z,48.72
2023-05-10T23:27:29.576Z,48.93
2023-05-10T23:32:52.216Z,49.25
2023-05-10T23:38:54.088Z,49.23
2023-05-10T23:44:09.642Z,49.41
2023-05-10T23:50:12.141Z,49.62
2023-05-10T23:56:33.148Z,49.76
